Flight Track Log - Related Links

Times and Time Zones

All times are in EDT time to prevent confusion due to time zone crossing. See the VRT51 flight status page for this flight to view local times or setup timezone preferences in your user account.

Time Position Orientation Groundspeed Altitude Reporting Facility
EDT Latitude Longitude Course Direction KTS MPH feet Rate Location/Type
Mon 12:48:53 PM 34.4986 -82.7006 304° West 189 217 3,800  Level Atlanta Center
Mon 12:49:53 PM 34.5392 -82.7703 305° West 174 200 6,400 3,200 Climbing Atlanta Center
Mon 12:50:53 PM 34.5817 -82.8481 304° West 218 251 10,200 3,300 Climbing Atlanta Center
Mon 12:51:53 PM 34.6325 -82.9356 305° West 288 331 13,000 2,750 Climbing Atlanta Center
Mon 12:52:53 PM 34.6897 -83.0383 304° West 330 380 15,700 1,550 Climbing Atlanta Center
Mon 12:53:00 PM 34.7172 -83.0978 304° West  Level Estimated
Mon 12:53:53 PM 34.7572 -83.1514 306° West 400 460 16,100  Level Atlanta Center
Mon 12:54:53 PM 34.8228 -83.2619 306° West 419 482 16,000 -50 Descending Atlanta Center
Mon 12:55:53 PM 34.8819 -83.3753 302° West 414 476 16,000 50 Level Atlanta Center
Mon 12:56:53 PM 34.9450 -83.4814 306° West 402 463 16,100 50 Climbing Atlanta Center
Mon 12:57:53 PM 35.0103 -83.5975 304° West 402 463 16,100  Level Atlanta Center
Mon 12:58:53 PM 35.0711 -83.7089 304° West 402 463 16,100 -50 Level Atlanta Center
Mon 12:59:53 PM 35.1233 -83.8078 303° West 395 455 16,000 -50 Descending Atlanta Center
Mon 01:00:53 PM 35.1842 -83.9167 304° West 390 449 16,000  Level Atlanta Center
Mon 01:01:53 PM 35.2447 -84.0261 304° West 395 455 16,000  Level Atlanta Center
Mon 01:02:53 PM 35.3053 -84.1381 304° West 395 455 16,000  Level Atlanta Center
Mon 01:03:53 PM 35.3633 -84.2450 304° West 395 455 16,000  Level Atlanta Center
Mon 01:04:53 PM 35.4236 -84.3547 304° West 395 455 16,000  Level Atlanta Center
Mon 01:05:53 PM 35.4839 -84.4647 304° West 395 455 16,000  Level Atlanta Center
Mon 01:06:53 PM 35.5439 -84.5747 304° West 395 455 16,000  Level Atlanta Center
Mon 01:07:53 PM 35.6061 -84.6875 304° West 395 455 16,000  Level Atlanta Center
Mon 01:08:53 PM 35.6639 -84.7953 303° West 395 455 16,000 -50 Level Atlanta Center
Mon 01:09:53 PM 35.7214 -84.9033 303° West 390 449 15,900 -900 Descending Atlanta Center
Mon 01:10:53 PM 35.7792 -85.0114 303° West 390 449 14,200 -2,000 Descending Atlanta Center
Mon 01:11:53 PM 35.8283 -85.1194 299° West 384 442 11,900 -2,350 Descending Atlanta Center
Mon 01:12:53 PM 35.8669 -85.2381 292° West 363 418 9,500 -2,150 Descending Atlanta Center
Mon 01:13:53 PM 35.8992 -85.3281 294° West 321 369 7,600 -1,900 Descending Atlanta Center

Login

Don't have an account? Register now (free) for customized features, flight alerts, and more!